sensor_id;sensor_type;location;lat;lon;timestamp;temperature;humidity
11577;DHT22;5844;51.496;6.788;2023-08-07T00:01:53;13.70;1.00
11577;DHT22;5844;51.496;6.788;2023-08-07T00:04:19;13.70;1.00
11577;DHT22;5844;51.496;6.788;2023-08-07T00:06:44;13.70;1.00
11577;DHT22;5844;51.496;6.788;2023-08-07T00:09:10;13.70;1.00
11577;DHT22;5844;51.496;6.788;2023-08-07T00:11:35;13.70;1.00
11577;DHT22;5844;51.496;6.788;2023-08-07T00:14:01;13.80;1.00
11577;DHT22;5844;51.496;6.788;2023-08-07T00:16:27;13.70;1.00
11577;DHT22;5844;51.496;6.788;2023-08-07T00:18:52;13.70;1.00
11577;DHT22;5844;51.496;6.788;2023-08-07T00:21:22;13.70;1.00
11577;DHT22;5844;51.496;6.788;2023-08-07T00:23:48;13.70;1.00
11577;DHT22;5844;51.496;6.788;2023-08-07T00:26:15;13.70;1.00
11577;DHT22;5844;51.496;6.788;2023-08-07T00:28:40;13.70;1.00
11577;DHT22;5844;51.496;6.788;2023-08-07T00:31:06;13.70;1.00
11577;DHT22;5844;51.496;6.788;2023-08-07T00:33:32;13.70;1.00
11577;DHT22;5844;51.496;6.788;2023-08-07T00:35:57;13.70;1.00
11577;DHT22;5844;51.496;6.788;2023-08-07T00:38:23;13.70;1.00
11577;DHT22;5844;51.496;6.788;2023-08-07T00:40:48;13.60;1.00
11577;DHT22;5844;51.496;6.788;2023-08-07T00:43:15;13.60;1.00
11577;DHT22;5844;51.496;6.788;2023-08-07T00:45:46;13.60;1.00
11577;DHT22;5844;51.496;6.788;2023-08-07T00:48:13;13.60;1.00
11577;DHT22;5844;51.496;6.788;2023-08-07T00:50:42;13.60;1.00
11577;DHT22;5844;51.496;6.788;2023-08-07T00:53:08;13.60;1.00
11577;DHT22;5844;51.496;6.788;2023-08-07T00:55:34;13.60;1.00
11577;DHT22;5844;51.496;6.788;2023-08-07T00:58:01;13.60;1.00
11577;DHT22;5844;51.496;6.788;2023-08-07T01:00:28;13.60;1.00
11577;DHT22;5844;51.496;6.788;2023-08-07T01:02:56;13.60;1.00
11577;DHT22;5844;51.496;6.788;2023-08-07T01:05:24;13.60;1.00
11577;DHT22;5844;51.496;6.788;2023-08-07T01:07:50;13.60;1.00
11577;DHT22;5844;51.496;6.788;2023-08-07T01:10:34;13.60;1.00
11577;DHT22;5844;51.496;6.788;2023-08-07T01:13:08;13.60;1.00
11577;DHT22;5844;51.496;6.788;2023-08-07T01:15:37;13.60;1.00
11577;DHT22;5844;51.496;6.788;2023-08-07T01:18:04;13.60;1.00
11577;DHT22;5844;51.496;6.788;2023-08-07T01:20:32;13.60;1.00
11577;DHT22;5844;51.496;6.788;2023-08-07T01:22:58;13.60;1.00
11577;DHT22;5844;51.496;6.788;2023-08-07T01:25:24;13.60;1.00
11577;DHT22;5844;51.496;6.788;2023-08-07T01:30:36;13.60;1.00
11577;DHT22;5844;51.496;6.788;2023-08-07T01:35:51;13.60;1.00
11577;DHT22;5844;51.496;6.788;2023-08-07T01:38:17;13.60;1.00
11577;DHT22;5844;51.496;6.788;2023-08-07T01:40:44;13.60;1.00
11577;DHT22;5844;51.496;6.788;2023-08-07T01:43:10;13.60;1.00
11577;DHT22;5844;51.496;6.788;2023-08-07T01:45:36;13.60;1.00
11577;DHT22;5844;51.496;6.788;2023-08-07T01:48:02;13.50;1.00
11577;DHT22;5844;51.496;6.788;2023-08-07T01:50:28;13.50;1.00
11577;DHT22;5844;51.496;6.788;2023-08-07T01:52:54;13.50;1.00
11577;DHT22;5844;51.496;6.788;2023-08-07T01:55:21;13.50;1.00
11577;DHT22;5844;51.496;6.788;2023-08-07T01:57:46;13.50;1.00
11577;DHT22;5844;51.496;6.788;2023-08-07T02:00:12;13.50;1.00
11577;DHT22;5844;51.496;6.788;2023-08-07T02:02:38;13.50;1.00
11577;DHT22;5844;51.496;6.788;2023-08-07T02:05:04;13.50;1.00
11577;DHT22;5844;51.496;6.788;2023-08-07T02:07:30;13.50;1.00
11577;DHT22;5844;51.496;6.788;2023-08-07T02:09:57;13.50;1.00
11577;DHT22;5844;51.496;6.788;2023-08-07T02:12:23;13.50;1.00
11577;DHT22;5844;51.496;6.788;2023-08-07T02:14:51;13.50;1.00
11577;DHT22;5844;51.496;6.788;2023-08-07T02:17:16;13.50;1.00
11577;DHT22;5844;51.496;6.788;2023-08-07T02:19:42;13.50;1.00
11577;DHT22;5844;51.496;6.788;2023-08-07T02:22:07;13.50;1.00
11577;DHT22;5844;51.496;6.788;2023-08-07T02:24:33;13.50;1.00
11577;DHT22;5844;51.496;6.788;2023-08-07T02:26:59;13.50;1.00
11577;DHT22;5844;51.496;6.788;2023-08-07T02:29:24;13.50;1.00
11577;DHT22;5844;51.496;6.788;2023-08-07T02:31:50;13.50;1.00
11577;DHT22;5844;51.496;6.788;2023-08-07T02:34:15;13.50;1.00
11577;DHT22;5844;51.496;6.788;2023-08-07T02:36:41;13.40;1.00
11577;DHT22;5844;51.496;6.788;2023-08-07T02:39:07;13.40;1.00
11577;DHT22;5844;51.496;6.788;2023-08-07T02:41:32;13.40;1.00
11577;DHT22;5844;51.496;6.788;2023-08-07T02:43:58;13.40;1.00
11577;DHT22;5844;51.496;6.788;2023-08-07T02:46:24;13.40;1.00
11577;DHT22;5844;51.496;6.788;2023-08-07T02:48:49;13.50;1.00
11577;DHT22;5844;51.496;6.788;2023-08-07T02:51:15;13.50;1.00
11577;DHT22;5844;51.496;6.788;2023-08-07T02:53:40;13.50;1.00
11577;DHT22;5844;51.496;6.788;2023-08-07T02:56:06;13.40;1.00
11577;DHT22;5844;51.496;6.788;2023-08-07T02:58:32;13.40;1.00
11577;DHT22;5844;51.496;6.788;2023-08-07T03:01:03;13.40;1.00
11577;DHT22;5844;51.496;6.788;2023-08-07T03:03:30;13.40;1.00
11577;DHT22;5844;51.496;6.788;2023-08-07T03:05:56;13.50;1.00
11577;DHT22;5844;51.496;6.788;2023-08-07T03:08:21;13.50;1.00
11577;DHT22;5844;51.496;6.788;2023-08-07T03:10:54;13.50;1.00
11577;DHT22;5844;51.496;6.788;2023-08-07T03:13:24;13.50;1.00
11577;DHT22;5844;51.496;6.788;2023-08-07T03:15:58;13.50;1.00
11577;DHT22;5844;51.496;6.788;2023-08-07T03:18:23;13.40;1.00
11577;DHT22;5844;51.496;6.788;2023-08-07T03:20:49;13.40;1.00
11577;DHT22;5844;51.496;6.788;2023-08-07T03:23:15;13.40;1.00
11577;DHT22;5844;51.496;6.788;2023-08-07T03:25:40;13.40;1.00
11577;DHT22;5844;51.496;6.788;2023-08-07T03:28:06;13.40;1.00
11577;DHT22;5844;51.496;6.788;2023-08-07T03:30:31;13.40;1.00
11577;DHT22;5844;51.496;6.788;2023-08-07T03:32:57;13.40;1.00
11577;DHT22;5844;51.496;6.788;2023-08-07T03:35:23;13.40;1.00
11577;DHT22;5844;51.496;6.788;2023-08-07T03:37:49;13.40;1.00
11577;DHT22;5844;51.496;6.788;2023-08-07T03:40:14;13.40;1.00
11577;DHT22;5844;51.496;6.788;2023-08-07T03:42:40;13.40;1.00
11577;DHT22;5844;51.496;6.788;2023-08-07T03:45:06;13.40;1.00
11577;DHT22;5844;51.496;6.788;2023-08-07T03:47:32;13.30;1.00
11577;DHT22;5844;51.496;6.788;2023-08-07T03:49:57;13.30;1.00
11577;DHT22;5844;51.496;6.788;2023-08-07T03:52:23;13.30;1.00
11577;DHT22;5844;51.496;6.788;2023-08-07T03:54:48;13.30;1.00
11577;DHT22;5844;51.496;6.788;2023-08-07T03:57:14;13.30;1.00
11577;DHT22;5844;51.496;6.788;2023-08-07T03:59:39;13.30;1.00
11577;DHT22;5844;51.496;6.788;2023-08-07T04:02:05;13.30;1.00
11577;DHT22;5844;51.496;6.788;2023-08-07T04:04:31;13.30;1.00
11577;DHT22;5844;51.496;6.788;2023-08-07T04:06:56;13.30;1.00
11577;DHT22;5844;51.496;6.788;2023-08-07T04:09:22;13.40;1.00
11577;DHT22;5844;51.496;6.788;2023-08-07T04:11:48;13.30;1.00
11577;DHT22;5844;51.496;6.788;2023-08-07T04:14:13;13.30;1.00
11577;DHT22;5844;51.496;6.788;2023-08-07T04:16:39;13.40;1.00
11577;DHT22;5844;51.496;6.788;2023-08-07T04:19:05;13.30;1.00
11577;DHT22;5844;51.496;6.788;2023-08-07T04:21:32;13.40;1.00
11577;DHT22;5844;51.496;6.788;2023-08-07T04:23:58;13.40;1.00
11577;DHT22;5844;51.496;6.788;2023-08-07T04:26:26;13.40;1.00
11577;DHT22;5844;51.496;6.788;2023-08-07T04:28:51;13.40;1.00
11577;DHT22;5844;51.496;6.788;2023-08-07T04:31:17;13.40;1.00
11577;DHT22;5844;51.496;6.788;2023-08-07T04:33:43;13.30;1.00
11577;DHT22;5844;51.496;6.788;2023-08-07T04:36:08;13.30;1.00
11577;DHT22;5844;51.496;6.788;2023-08-07T04:38:34;13.30;1.00
11577;DHT22;5844;51.496;6.788;2023-08-07T04:40:59;13.30;1.00
11577;DHT22;5844;51.496;6.788;2023-08-07T04:43:25;13.30;1.00
11577;DHT22;5844;51.496;6.788;2023-08-07T04:45:51;13.30;1.00
11577;DHT22;5844;51.496;6.788;2023-08-07T04:48:17;13.40;1.00
11577;DHT22;5844;51.496;6.788;2023-08-07T04:50:43;13.40;1.00
11577;DHT22;5844;51.496;6.788;2023-08-07T04:53:09;13.40;1.00
11577;DHT22;5844;51.496;6.788;2023-08-07T04:55:34;13.40;1.00
11577;DHT22;5844;51.496;6.788;2023-08-07T04:58:01;13.40;1.00
11577;DHT22;5844;51.496;6.788;2023-08-07T05:00:27;13.30;1.00
11577;DHT22;5844;51.496;6.788;2023-08-07T05:02:54;13.30;1.00
11577;DHT22;5844;51.496;6.788;2023-08-07T05:05:19;13.40;1.00
11577;DHT22;5844;51.496;6.788;2023-08-07T05:07:47;13.30;1.00
11577;DHT22;5844;51.496;6.788;2023-08-07T05:10:13;13.30;1.00
11577;DHT22;5844;51.496;6.788;2023-08-07T05:12:39;13.30;1.00
11577;DHT22;5844;51.496;6.788;2023-08-07T05:15:05;13.30;1.00
11577;DHT22;5844;51.496;6.788;2023-08-07T05:17:31;13.20;1.00
11577;DHT22;5844;51.496;6.788;2023-08-07T05:19:57;13.20;1.00
11577;DHT22;5844;51.496;6.788;2023-08-07T05:22:23;13.20;1.00
11577;DHT22;5844;51.496;6.788;2023-08-07T05:24:48;13.20;1.00
11577;DHT22;5844;51.496;6.788;2023-08-07T05:27:14;13.20;1.00
11577;DHT22;5844;51.496;6.788;2023-08-07T05:29:40;13.20;1.00
11577;DHT22;5844;51.496;6.788;2023-08-07T05:32:12;13.20;1.00
11577;DHT22;5844;51.496;6.788;2023-08-07T05:34:38;13.20;1.00
11577;DHT22;5844;51.496;6.788;2023-08-07T05:37:05;13.20;1.00
11577;DHT22;5844;51.496;6.788;2023-08-07T05:39:31;13.20;1.00
11577;DHT22;5844;51.496;6.788;2023-08-07T05:41:57;13.20;1.00
11577;DHT22;5844;51.496;6.788;2023-08-07T05:44:26;13.20;1.00
11577;DHT22;5844;51.496;6.788;2023-08-07T05:46:52;13.20;1.00
11577;DHT22;5844;51.496;6.788;2023-08-07T05:49:17;13.20;1.00
11577;DHT22;5844;51.496;6.788;2023-08-07T05:51:43;13.20;1.00
11577;DHT22;5844;51.496;6.788;2023-08-07T05:54:09;13.20;1.00
11577;DHT22;5844;51.496;6.788;2023-08-07T05:56:35;13.20;1.00
11577;DHT22;5844;51.496;6.788;2023-08-07T05:59:00;13.20;1.00
11577;DHT22;5844;51.496;6.788;2023-08-07T06:01:26;13.30;1.00
11577;DHT22;5844;51.496;6.788;2023-08-07T06:03:56;13.30;1.00
11577;DHT22;5844;51.496;6.788;2023-08-07T06:06:22;13.30;1.00
11577;DHT22;5844;51.496;6.788;2023-08-07T06:08:48;13.30;1.00
11577;DHT22;5844;51.496;6.788;2023-08-07T06:11:14;13.40;1.00
11577;DHT22;5844;51.496;6.788;2023-08-07T06:13:40;13.40;1.00
11577;DHT22;5844;51.496;6.788;2023-08-07T06:16:06;13.40;1.00
11577;DHT22;5844;51.496;6.788;2023-08-07T06:18:32;13.50;1.00
11577;DHT22;5844;51.496;6.788;2023-08-07T06:20:57;13.50;1.00
11577;DHT22;5844;51.496;6.788;2023-08-07T06:23:23;13.50;1.00
11577;DHT22;5844;51.496;6.788;2023-08-07T06:25:49;13.60;1.00
11577;DHT22;5844;51.496;6.788;2023-08-07T06:28:14;13.60;1.00
11577;DHT22;5844;51.496;6.788;2023-08-07T06:30:40;13.70;1.00
11577;DHT22;5844;51.496;6.788;2023-08-07T06:33:06;13.70;1.00
11577;DHT22;5844;51.496;6.788;2023-08-07T06:35:36;13.70;1.00
11577;DHT22;5844;51.496;6.788;2023-08-07T06:38:02;13.70;1.00
11577;DHT22;5844;51.496;6.788;2023-08-07T06:40:28;13.70;1.00
11577;DHT22;5844;51.496;6.788;2023-08-07T06:42:53;13.70;1.00
11577;DHT22;5844;51.496;6.788;2023-08-07T06:45:19;13.70;1.00
11577;DHT22;5844;51.496;6.788;2023-08-07T06:47:45;13.70;1.00
11577;DHT22;5844;51.496;6.788;2023-08-07T06:50:11;13.80;1.00
11577;DHT22;5844;51.496;6.788;2023-08-07T06:52:37;13.80;1.00
11577;DHT22;5844;51.496;6.788;2023-08-07T06:55:03;13.90;1.00
11577;DHT22;5844;51.496;6.788;2023-08-07T06:57:29;13.90;1.00
11577;DHT22;5844;51.496;6.788;2023-08-07T06:59:54;13.90;1.00
11577;DHT22;5844;51.496;6.788;2023-08-07T07:02:20;13.90;1.00
11577;DHT22;5844;51.496;6.788;2023-08-07T07:04:46;13.90;1.00
11577;DHT22;5844;51.496;6.788;2023-08-07T07:07:12;13.90;1.00
11577;DHT22;5844;51.496;6.788;2023-08-07T07:09:37;13.90;1.00
11577;DHT22;5844;51.496;6.788;2023-08-07T07:12:03;13.90;1.00
11577;DHT22;5844;51.496;6.788;2023-08-07T07:14:29;13.90;1.00
11577;DHT22;5844;51.496;6.788;2023-08-07T07:16:54;13.90;1.00
11577;DHT22;5844;51.496;6.788;2023-08-07T07:19:20;13.90;1.00
11577;DHT22;5844;51.496;6.788;2023-08-07T07:21:46;13.90;1.00
11577;DHT22;5844;51.496;6.788;2023-08-07T07:24:11;13.90;1.00
11577;DHT22;5844;51.496;6.788;2023-08-07T07:26:37;13.90;1.00
11577;DHT22;5844;51.496;6.788;2023-08-07T07:29:03;13.90;1.00
11577;DHT22;5844;51.496;6.788;2023-08-07T07:31:28;13.90;1.00
11577;DHT22;5844;51.496;6.788;2023-08-07T07:33:54;14.00;1.00
11577;DHT22;5844;51.496;6.788;2023-08-07T07:36:20;14.00;1.00
11577;DHT22;5844;51.496;6.788;2023-08-07T07:38:46;13.90;1.00
11577;DHT22;5844;51.496;6.788;2023-08-07T07:41:15;13.90;1.00
11577;DHT22;5844;51.496;6.788;2023-08-07T07:43:41;14.00;1.00
11577;DHT22;5844;51.496;6.788;2023-08-07T07:46:07;14.00;1.00
11577;DHT22;5844;51.496;6.788;2023-08-07T07:48:32;14.00;1.00
11577;DHT22;5844;51.496;6.788;2023-08-07T07:51:02;14.00;1.00
11577;DHT22;5844;51.496;6.788;2023-08-07T07:53:28;14.10;1.00
11577;DHT22;5844;51.496;6.788;2023-08-07T07:55:54;14.10;1.00
11577;DHT22;5844;51.496;6.788;2023-08-07T07:58:20;14.10;1.00
11577;DHT22;5844;51.496;6.788;2023-08-07T08:00:46;14.20;1.00
11577;DHT22;5844;51.496;6.788;2023-08-07T08:03:11;14.20;1.00
11577;DHT22;5844;51.496;6.788;2023-08-07T08:05:38;14.40;1.00
11577;DHT22;5844;51.496;6.788;2023-08-07T08:08:05;14.40;1.00
11577;DHT22;5844;51.496;6.788;2023-08-07T08:10:30;14.30;1.00
11577;DHT22;5844;51.496;6.788;2023-08-07T08:12:56;14.40;1.00
11577;DHT22;5844;51.496;6.788;2023-08-07T08:15:22;14.40;1.00
11577;DHT22;5844;51.496;6.788;2023-08-07T08:17:48;14.50;1.00
11577;DHT22;5844;51.496;6.788;2023-08-07T08:20:14;14.50;1.00
11577;DHT22;5844;51.496;6.788;2023-08-07T08:22:45;14.60;1.00
11577;DHT22;5844;51.496;6.788;2023-08-07T08:25:10;14.60;1.00
11577;DHT22;5844;51.496;6.788;2023-08-07T08:27:40;14.70;1.00
11577;DHT22;5844;51.496;6.788;2023-08-07T08:30:06;14.80;1.00
11577;DHT22;5844;51.496;6.788;2023-08-07T08:32:32;14.80;1.00
11577;DHT22;5844;51.496;6.788;2023-08-07T08:34:58;15.00;1.00
11577;DHT22;5844;51.496;6.788;2023-08-07T08:37:24;15.20;1.00
11577;DHT22;5844;51.496;6.788;2023-08-07T08:39:49;15.20;1.00
11577;DHT22;5844;51.496;6.788;2023-08-07T08:42:16;15.10;1.00
11577;DHT22;5844;51.496;6.788;2023-08-07T08:44:57;15.20;1.00
11577;DHT22;5844;51.496;6.788;2023-08-07T08:47:26;15.40;1.00
11577;DHT22;5844;51.496;6.788;2023-08-07T08:50:13;15.40;1.00
11577;DHT22;5844;51.496;6.788;2023-08-07T08:52:42;15.70;1.00
11577;DHT22;5844;51.496;6.788;2023-08-07T08:55:10;15.90;1.00
11577;DHT22;5844;51.496;6.788;2023-08-07T08:57:38;16.10;1.00
11577;DHT22;5844;51.496;6.788;2023-08-07T09:00:08;16.20;1.00
11577;DHT22;5844;51.496;6.788;2023-08-07T09:02:50;16.20;1.00
11577;DHT22;5844;51.496;6.788;2023-08-07T09:05:17;16.00;1.00
11577;DHT22;5844;51.496;6.788;2023-08-07T09:07:43;16.20;1.00
11577;DHT22;5844;51.496;6.788;2023-08-07T09:10:12;16.50;1.00
11577;DHT22;5844;51.496;6.788;2023-08-07T09:12:40;16.70;1.00
11577;DHT22;5844;51.496;6.788;2023-08-07T09:15:08;16.90;1.00
11577;DHT22;5844;51.496;6.788;2023-08-07T09:17:40;17.20;1.00
11577;DHT22;5844;51.496;6.788;2023-08-07T09:20:07;17.50;1.00
11577;DHT22;5844;51.496;6.788;2023-08-07T09:22:38;17.10;1.00
11577;DHT22;5844;51.496;6.788;2023-08-07T09:25:03;17.40;1.00
11577;DHT22;5844;51.496;6.788;2023-08-07T09:27:30;17.10;1.00
11577;DHT22;5844;51.496;6.788;2023-08-07T09:29:56;16.50;1.00
11577;DHT22;5844;51.496;6.788;2023-08-07T09:32:23;15.90;1.00
11577;DHT22;5844;51.496;6.788;2023-08-07T09:34:50;15.60;1.00
11577;DHT22;5844;51.496;6.788;2023-08-07T09:37:16;15.60;1.00
11577;DHT22;5844;51.496;6.788;2023-08-07T09:39:42;15.60;1.00
11577;DHT22;5844;51.496;6.788;2023-08-07T09:42:15;15.60;1.00
11577;DHT22;5844;51.496;6.788;2023-08-07T09:44:42;15.70;1.00
11577;DHT22;5844;51.496;6.788;2023-08-07T09:47:16;16.00;1.00
11577;DHT22;5844;51.496;6.788;2023-08-07T09:49:42;16.00;1.00
11577;DHT22;5844;51.496;6.788;2023-08-07T09:52:10;16.40;1.00
11577;DHT22;5844;51.496;6.788;2023-08-07T09:54:38;16.80;1.00
11577;DHT22;5844;51.496;6.788;2023-08-07T09:57:04;17.30;1.00
11577;DHT22;5844;51.496;6.788;2023-08-07T09:59:32;17.40;1.00
11577;DHT22;5844;51.496;6.788;2023-08-07T10:02:00;17.40;1.00
11577;DHT22;5844;51.496;6.788;2023-08-07T10:04:26;17.70;1.00
11577;DHT22;5844;51.496;6.788;2023-08-07T10:06:53;17.90;1.00
11577;DHT22;5844;51.496;6.788;2023-08-07T10:09:18;17.80;1.00
11577;DHT22;5844;51.496;6.788;2023-08-07T10:11:45;17.70;1.00
11577;DHT22;5844;51.496;6.788;2023-08-07T10:14:13;17.80;1.00
11577;DHT22;5844;51.496;6.788;2023-08-07T10:16:40;18.30;1.00
11577;DHT22;5844;51.496;6.788;2023-08-07T10:19:07;18.50;1.00
11577;DHT22;5844;51.496;6.788;2023-08-07T10:21:35;18.10;1.00
11577;DHT22;5844;51.496;6.788;2023-08-07T10:24:03;17.60;1.00
11577;DHT22;5844;51.496;6.788;2023-08-07T10:26:30;17.20;1.00
11577;DHT22;5844;51.496;6.788;2023-08-07T10:28:58;16.80;1.00
11577;DHT22;5844;51.496;6.788;2023-08-07T10:31:26;16.50;1.00
11577;DHT22;5844;51.496;6.788;2023-08-07T10:33:52;15.90;1.00
11577;DHT22;5844;51.496;6.788;2023-08-07T10:36:19;15.70;1.00
11577;DHT22;5844;51.496;6.788;2023-08-07T10:38:45;15.60;1.00
11577;DHT22;5844;51.496;6.788;2023-08-07T10:41:14;15.50;1.00
11577;DHT22;5844;51.496;6.788;2023-08-07T10:43:43;15.30;1.00
11577;DHT22;5844;51.496;6.788;2023-08-07T10:46:10;15.40;1.00
11577;DHT22;5844;51.496;6.788;2023-08-07T10:48:46;15.70;1.00
11577;DHT22;5844;51.496;6.788;2023-08-07T10:51:16;16.00;1.00
11577;DHT22;5844;51.496;6.788;2023-08-07T10:53:44;16.10;1.00
11577;DHT22;5844;51.496;6.788;2023-08-07T10:56:16;16.20;1.00
11577;DHT22;5844;51.496;6.788;2023-08-07T10:58:42;16.30;1.00
11577;DHT22;5844;51.496;6.788;2023-08-07T11:03:49;17.90;1.00
11577;DHT22;5844;51.496;6.788;2023-08-07T11:06:16;19.10;1.00
11577;DHT22;5844;51.496;6.788;2023-08-07T11:08:42;20.00;1.00
11577;DHT22;5844;51.496;6.788;2023-08-07T11:11:08;20.70;1.00
11577;DHT22;5844;51.496;6.788;2023-08-07T11:13:34;21.20;1.00
11577;DHT22;5844;51.496;6.788;2023-08-07T11:16:03;21.50;1.00
11577;DHT22;5844;51.496;6.788;2023-08-07T11:18:30;21.20;1.00
11577;DHT22;5844;51.496;6.788;2023-08-07T11:20:56;20.80;1.00
11577;DHT22;5844;51.496;6.788;2023-08-07T11:23:25;20.10;1.00
11577;DHT22;5844;51.496;6.788;2023-08-07T11:25:55;19.00;1.00
11577;DHT22;5844;51.496;6.788;2023-08-07T11:28:22;17.70;1.00
11577;DHT22;5844;51.496;6.788;2023-08-07T11:30:49;17.00;1.00
11577;DHT22;5844;51.496;6.788;2023-08-07T11:33:21;16.80;1.00
11577;DHT22;5844;51.496;6.788;2023-08-07T11:35:47;17.00;1.00
11577;DHT22;5844;51.496;6.788;2023-08-07T11:38:32;17.70;1.00
11577;DHT22;5844;51.496;6.788;2023-08-07T11:41:02;19.20;1.00
11577;DHT22;5844;51.496;6.788;2023-08-07T11:43:30;20.60;1.00
11577;DHT22;5844;51.496;6.788;2023-08-07T11:45:57;21.80;1.00
11577;DHT22;5844;51.496;6.788;2023-08-07T11:48:26;22.70;1.00
11577;DHT22;5844;51.496;6.788;2023-08-07T11:50:53;22.00;1.00
11577;DHT22;5844;51.496;6.788;2023-08-07T11:53:20;22.10;1.00
11577;DHT22;5844;51.496;6.788;2023-08-07T11:55:51;22.00;1.00
11577;DHT22;5844;51.496;6.788;2023-08-07T11:58:16;21.30;1.00
11577;DHT22;5844;51.496;6.788;2023-08-07T12:00:43;21.60;1.00
11577;DHT22;5844;51.496;6.788;2023-08-07T12:03:27;22.50;1.00
11577;DHT22;5844;51.496;6.788;2023-08-07T12:05:56;23.20;1.00
11577;DHT22;5844;51.496;6.788;2023-08-07T12:08:22;23.10;1.00
11577;DHT22;5844;51.496;6.788;2023-08-07T12:10:51;23.70;1.00
11577;DHT22;5844;51.496;6.788;2023-08-07T12:13:23;23.70;1.00
11577;DHT22;5844;51.496;6.788;2023-08-07T12:15:51;22.60;1.00
11577;DHT22;5844;51.496;6.788;2023-08-07T12:18:22;22.00;1.00
11577;DHT22;5844;51.496;6.788;2023-08-07T12:20:52;21.30;1.00
11577;DHT22;5844;51.496;6.788;2023-08-07T12:23:20;21.10;1.00
11577;DHT22;5844;51.496;6.788;2023-08-07T12:25:46;20.70;1.00
11577;DHT22;5844;51.496;6.788;2023-08-07T12:28:12;20.60;1.00
11577;DHT22;5844;51.496;6.788;2023-08-07T12:30:39;20.60;1.00
11577;DHT22;5844;51.496;6.788;2023-08-07T12:33:05;20.40;1.00
11577;DHT22;5844;51.496;6.788;2023-08-07T12:35:31;20.20;1.00
11577;DHT22;5844;51.496;6.788;2023-08-07T12:37:57;20.10;1.00
11577;DHT22;5844;51.496;6.788;2023-08-07T12:40:23;20.00;1.00
11577;DHT22;5844;51.496;6.788;2023-08-07T12:42:49;19.80;1.00
11577;DHT22;5844;51.496;6.788;2023-08-07T12:45:16;19.40;1.00
11577;DHT22;5844;51.496;6.788;2023-08-07T12:47:42;19.30;1.00
11577;DHT22;5844;51.496;6.788;2023-08-07T12:50:08;19.40;1.00
11577;DHT22;5844;51.496;6.788;2023-08-07T12:52:35;19.80;1.00
11577;DHT22;5844;51.496;6.788;2023-08-07T12:55:01;20.00;1.00
11577;DHT22;5844;51.496;6.788;2023-08-07T12:57:26;20.20;1.00
11577;DHT22;5844;51.496;6.788;2023-08-07T12:59:52;21.70;1.00
11577;DHT22;5844;51.496;6.788;2023-08-07T13:02:18;23.30;1.00
11577;DHT22;5844;51.496;6.788;2023-08-07T13:04:43;24.80;1.00
11577;DHT22;5844;51.496;6.788;2023-08-07T13:07:09;25.50;1.00
11577;DHT22;5844;51.496;6.788;2023-08-07T13:09:35;26.10;1.00
11577;DHT22;5844;51.496;6.788;2023-08-07T13:12:00;26.10;1.00
11577;DHT22;5844;51.496;6.788;2023-08-07T13:14:26;25.40;1.00
11577;DHT22;5844;51.496;6.788;2023-08-07T13:16:51;25.20;1.00
11577;DHT22;5844;51.496;6.788;2023-08-07T13:19:17;24.60;1.00
11577;DHT22;5844;51.496;6.788;2023-08-07T13:21:43;24.80;1.00
11577;DHT22;5844;51.496;6.788;2023-08-07T13:24:09;24.50;1.00
11577;DHT22;5844;51.496;6.788;2023-08-07T13:26:36;25.10;1.00
11577;DHT22;5844;51.496;6.788;2023-08-07T13:29:03;26.20;1.00
11577;DHT22;5844;51.496;6.788;2023-08-07T13:31:28;25.90;1.00
11577;DHT22;5844;51.496;6.788;2023-08-07T13:33:54;24.80;1.00
11577;DHT22;5844;51.496;6.788;2023-08-07T13:36:19;24.80;1.00
11577;DHT22;5844;51.496;6.788;2023-08-07T13:38:46;24.50;1.00
11577;DHT22;5844;51.496;6.788;2023-08-07T13:41:12;23.60;1.00
11577;DHT22;5844;51.496;6.788;2023-08-07T13:43:37;23.00;1.00
11577;DHT22;5844;51.496;6.788;2023-08-07T13:46:03;22.30;1.00
11577;DHT22;5844;51.496;6.788;2023-08-07T13:48:28;21.60;1.00
11577;DHT22;5844;51.496;6.788;2023-08-07T13:50:54;21.10;1.00
11577;DHT22;5844;51.496;6.788;2023-08-07T13:53:20;21.10;1.00
11577;DHT22;5844;51.496;6.788;2023-08-07T13:55:46;21.40;1.00
11577;DHT22;5844;51.496;6.788;2023-08-07T13:58:12;21.40;1.00
11577;DHT22;5844;51.496;6.788;2023-08-07T14:00:41;22.10;1.00
11577;DHT22;5844;51.496;6.788;2023-08-07T14:03:08;22.50;1.00
11577;DHT22;5844;51.496;6.788;2023-08-07T14:05:34;22.40;1.00
11577;DHT22;5844;51.496;6.788;2023-08-07T14:08:00;22.40;1.00
11577;DHT22;5844;51.496;6.788;2023-08-07T14:10:27;21.80;1.00
11577;DHT22;5844;51.496;6.788;2023-08-07T14:12:53;21.80;1.00
11577;DHT22;5844;51.496;6.788;2023-08-07T14:15:18;23.00;1.00
11577;DHT22;5844;51.496;6.788;2023-08-07T14:17:44;24.70;1.00
11577;DHT22;5844;51.496;6.788;2023-08-07T14:20:10;25.70;1.00
11577;DHT22;5844;51.496;6.788;2023-08-07T14:22:36;27.00;1.00
11577;DHT22;5844;51.496;6.788;2023-08-07T14:25:04;28.10;1.00
11577;DHT22;5844;51.496;6.788;2023-08-07T14:27:30;28.50;1.00
11577;DHT22;5844;51.496;6.788;2023-08-07T14:29:56;29.40;1.00
11577;DHT22;5844;51.496;6.788;2023-08-07T14:32:22;30.30;1.00
11577;DHT22;5844;51.496;6.788;2023-08-07T14:34:48;30.50;1.00
11577;DHT22;5844;51.496;6.788;2023-08-07T14:37:14;31.20;1.00
11577;DHT22;5844;51.496;6.788;2023-08-07T14:39:40;31.40;1.00
11577;DHT22;5844;51.496;6.788;2023-08-07T14:42:06;31.00;1.00
11577;DHT22;5844;51.496;6.788;2023-08-07T14:44:32;29.30;1.00
11577;DHT22;5844;51.496;6.788;2023-08-07T14:46:58;27.20;1.00
11577;DHT22;5844;51.496;6.788;2023-08-07T14:49:24;26.60;1.00
11577;DHT22;5844;51.496;6.788;2023-08-07T14:51:49;25.40;1.00
11577;DHT22;5844;51.496;6.788;2023-08-07T14:54:15;24.30;1.00
11577;DHT22;5844;51.496;6.788;2023-08-07T14:56:41;25.00;1.00
11577;DHT22;5844;51.496;6.788;2023-08-07T14:59:06;26.40;1.00
11577;DHT22;5844;51.496;6.788;2023-08-07T15:01:32;27.70;1.00
11577;DHT22;5844;51.496;6.788;2023-08-07T15:03:58;29.00;1.00
11577;DHT22;5844;51.496;6.788;2023-08-07T15:06:23;28.40;1.00
11577;DHT22;5844;51.496;6.788;2023-08-07T15:08:49;27.10;1.00
11577;DHT22;5844;51.496;6.788;2023-08-07T15:11:15;27.50;1.00
11577;DHT22;5844;51.496;6.788;2023-08-07T15:13:41;27.50;1.00
11577;DHT22;5844;51.496;6.788;2023-08-07T15:16:07;26.80;1.00
11577;DHT22;5844;51.496;6.788;2023-08-07T15:18:32;25.40;1.00
11577;DHT22;5844;51.496;6.788;2023-08-07T15:20:59;24.30;1.00
11577;DHT22;5844;51.496;6.788;2023-08-07T15:23:26;23.50;1.00
11577;DHT22;5844;51.496;6.788;2023-08-07T15:25:52;23.00;1.00
11577;DHT22;5844;51.496;6.788;2023-08-07T15:28:17;22.80;1.00
11577;DHT22;5844;51.496;6.788;2023-08-07T15:30:50;22.20;1.00
11577;DHT22;5844;51.496;6.788;2023-08-07T15:33:16;21.90;1.00
11577;DHT22;5844;51.496;6.788;2023-08-07T15:35:42;21.90;1.00
11577;DHT22;5844;51.496;6.788;2023-08-07T15:38:08;21.90;1.00
11577;DHT22;5844;51.496;6.788;2023-08-07T15:40:38;21.80;1.00
11577;DHT22;5844;51.496;6.788;2023-08-07T15:43:05;22.10;1.00
11577;DHT22;5844;51.496;6.788;2023-08-07T15:45:30;22.50;1.00
11577;DHT22;5844;51.496;6.788;2023-08-07T15:47:56;22.20;1.00
11577;DHT22;5844;51.496;6.788;2023-08-07T15:50:22;21.80;1.00
11577;DHT22;5844;51.496;6.788;2023-08-07T15:52:48;21.10;1.00
11577;DHT22;5844;51.496;6.788;2023-08-07T15:55:13;20.70;1.00
11577;DHT22;5844;51.496;6.788;2023-08-07T15:57:39;20.40;1.00
11577;DHT22;5844;51.496;6.788;2023-08-07T16:00:06;21.40;1.00
11577;DHT22;5844;51.496;6.788;2023-08-07T16:02:32;22.30;1.00
11577;DHT22;5844;51.496;6.788;2023-08-07T16:04:57;22.70;1.00
11577;DHT22;5844;51.496;6.788;2023-08-07T16:07:23;22.20;1.00